sensor_id;sensor_type;location;lat;lon;timestamp;pressure;altitude;pressure_sealevel;temperature;humidity
20616;BME280;10467;42.338;23.552;2022-08-20T00:00:53;90726.88;;;18.49;100.00
20616;BME280;10467;42.338;23.552;2022-08-20T00:03:22;90733.59;;;18.36;100.00
20616;BME280;10467;42.338;23.552;2022-08-20T00:06:07;90731.84;;;18.24;100.00
20616;BME280;10467;42.338;23.552;2022-08-20T00:08:33;90737.88;;;18.40;100.00
20616;BME280;10467;42.338;23.552;2022-08-20T00:10:59;90732.19;;;18.45;100.00
20616;BME280;10467;42.338;23.552;2022-08-20T00:13:29;90727.09;;;18.40;100.00
20616;BME280;10467;42.338;23.552;2022-08-20T00:15:55;90726.94;;;18.30;100.00
20616;BME280;10467;42.338;23.552;2022-08-20T00:18:22;90728.00;;;18.25;100.00
20616;BME280;10467;42.338;23.552;2022-08-20T00:20:50;90726.47;;;18.24;100.00
20616;BME280;10467;42.338;23.552;2022-08-20T00:23:17;90733.34;;;18.21;100.00
20616;BME280;10467;42.338;23.552;2022-08-20T00:25:44;90728.63;;;18.15;100.00
20616;BME280;10467;42.338;23.552;2022-08-20T00:28:10;90725.50;;;18.13;100.00
20616;BME280;10467;42.338;23.552;2022-08-20T00:30:38;90733.22;;;18.14;100.00
20616;BME280;10467;42.338;23.552;2022-08-20T00:33:11;90738.19;;;18.12;100.00
20616;BME280;10467;42.338;23.552;2022-08-20T00:35:41;90743.88;;;18.07;100.00
20616;BME280;10467;42.338;23.552;2022-08-20T00:38:07;90734.25;;;18.06;100.00
20616;BME280;10467;42.338;23.552;2022-08-20T00:40:40;90738.50;;;18.07;100.00
20616;BME280;10467;42.338;23.552;2022-08-20T00:43:24;90732.78;;;18.12;100.00
20616;BME280;10467;42.338;23.552;2022-08-20T00:45:50;90731.56;;;18.06;100.00
20616;BME280;10467;42.338;23.552;2022-08-20T00:48:20;90722.81;;;17.90;100.00
20616;BME280;10467;42.338;23.552;2022-08-20T00:50:46;90719.91;;;17.79;100.00
20616;BME280;10467;42.338;23.552;2022-08-20T00:53:11;90722.44;;;17.69;100.00
20616;BME280;10467;42.338;23.552;2022-08-20T00:55:37;90729.72;;;17.68;100.00
20616;BME280;10467;42.338;23.552;2022-08-20T00:58:05;90724.22;;;17.64;100.00
20616;BME280;10467;42.338;23.552;2022-08-20T01:00:40;90723.38;;;17.60;100.00
20616;BME280;10467;42.338;23.552;2022-08-20T01:03:07;90713.81;;;17.63;100.00
20616;BME280;10467;42.338;23.552;2022-08-20T01:05:35;90714.47;;;17.56;100.00
20616;BME280;10467;42.338;23.552;2022-08-20T01:08:01;90713.97;;;17.51;100.00
20616;BME280;10467;42.338;23.552;2022-08-20T01:10:32;90713.78;;;17.40;100.00
20616;BME280;10467;42.338;23.552;2022-08-20T01:12:59;90719.00;;;17.33;100.00
20616;BME280;10467;42.338;23.552;2022-08-20T01:15:28;90719.00;;;17.33;100.00
20616;BME280;10467;42.338;23.552;2022-08-20T01:17:57;90721.44;;;17.38;100.00
20616;BME280;10467;42.338;23.552;2022-08-20T01:20:26;90713.50;;;17.45;100.00
20616;BME280;10467;42.338;23.552;2022-08-20T01:26:24;90717.16;;;17.56;100.00
20616;BME280;10467;42.338;23.552;2022-08-20T01:31:22;90705.28;;;17.57;100.00
20616;BME280;10467;42.338;23.552;2022-08-20T01:33:51;90712.44;;;17.69;100.00
20616;BME280;10467;42.338;23.552;2022-08-20T01:36:20;90704.19;;;17.81;100.00
20616;BME280;10467;42.338;23.552;2022-08-20T01:38:47;90694.66;;;17.84;100.00
20616;BME280;10467;42.338;23.552;2022-08-20T01:43:54;90694.88;;;17.75;100.00
20616;BME280;10467;42.338;23.552;2022-08-20T01:46:27;90692.53;;;17.74;100.00
20616;BME280;10467;42.338;23.552;2022-08-20T01:48:55;90692.53;;;17.74;100.00
20616;BME280;10467;42.338;23.552;2022-08-20T01:51:27;90689.06;;;17.73;100.00
20616;BME280;10467;42.338;23.552;2022-08-20T01:53:54;90692.91;;;17.72;100.00
20616;BME280;10467;42.338;23.552;2022-08-20T01:56:24;90692.25;;;17.59;100.00
20616;BME280;10467;42.338;23.552;2022-08-20T01:58:52;90685.97;;;17.52;100.00
20616;BME280;10467;42.338;23.552;2022-08-20T02:01:24;90677.03;;;17.48;100.00
20616;BME280;10467;42.338;23.552;2022-08-20T02:03:50;90678.69;;;17.33;100.00
20616;BME280;10467;42.338;23.552;2022-08-20T02:06:16;90673.31;;;17.14;100.00
20616;BME280;10467;42.338;23.552;2022-08-20T02:08:42;90676.91;;;17.02;100.00
20616;BME280;10467;42.338;23.552;2022-08-20T02:11:08;90671.78;;;16.93;100.00
20616;BME280;10467;42.338;23.552;2022-08-20T02:13:34;90660.78;;;16.83;100.00
20616;BME280;10467;42.338;23.552;2022-08-20T02:15:59;90671.97;;;16.85;100.00
20616;BME280;10467;42.338;23.552;2022-08-20T02:18:25;90660.78;;;16.83;100.00
20616;BME280;10467;42.338;23.552;2022-08-20T02:20:51;90654.56;;;16.79;100.00
20616;BME280;10467;42.338;23.552;2022-08-20T02:23:17;90660.97;;;16.90;100.00
20616;BME280;10467;42.338;23.552;2022-08-20T02:25:44;90655.78;;;17.00;100.00
20616;BME280;10467;42.338;23.552;2022-08-20T02:28:14;90650.13;;;17.05;100.00
20616;BME280;10467;42.338;23.552;2022-08-20T02:30:43;90653.06;;;17.20;100.00
20616;BME280;10467;42.338;23.552;2022-08-20T02:33:10;90664.75;;;17.27;100.00
20616;BME280;10467;42.338;23.552;2022-08-20T02:35:38;90668.63;;;17.30;100.00
20616;BME280;10467;42.338;23.552;2022-08-20T02:38:04;90676.41;;;17.35;100.00
20616;BME280;10467;42.338;23.552;2022-08-20T02:40:30;90669.34;;;17.27;100.00
20616;BME280;10467;42.338;23.552;2022-08-20T02:43:00;90672.25;;;17.18;100.00
20616;BME280;10467;42.338;23.552;2022-08-20T02:45:26;90649.69;;;17.03;100.00
20616;BME280;10467;42.338;23.552;2022-08-20T02:47:52;90662.16;;;16.92;100.00
20616;BME280;10467;42.338;23.552;2022-08-20T02:50:19;90662.50;;;16.91;100.00
20616;BME280;10467;42.338;23.552;2022-08-20T02:52:46;90663.97;;;16.88;100.00
20616;BME280;10467;42.338;23.552;2022-08-20T02:55:12;90658.28;;;16.90;100.00
20616;BME280;10467;42.338;23.552;2022-08-20T02:57:38;90674.47;;;16.93;100.00
20616;BME280;10467;42.338;23.552;2022-08-20T03:00:09;90664.31;;;16.87;100.00
20616;BME280;10467;42.338;23.552;2022-08-20T03:02:35;90661.63;;;16.87;100.00
20616;BME280;10467;42.338;23.552;2022-08-20T03:05:01;90671.19;;;16.84;100.00
20616;BME280;10467;42.338;23.552;2022-08-20T03:07:26;90660.44;;;16.84;100.00
20616;BME280;10467;42.338;23.552;2022-08-20T03:09:52;90677.56;;;16.95;100.00
20616;BME280;10467;42.338;23.552;2022-08-20T03:12:18;90667.03;;;17.06;100.00
20616;BME280;10467;42.338;23.552;2022-08-20T03:14:43;90664.34;;;17.06;100.00
20616;BME280;10467;42.338;23.552;2022-08-20T03:17:09;90669.09;;;17.13;100.00
20616;BME280;10467;42.338;23.552;2022-08-20T03:19:34;90668.38;;;17.16;100.00
20616;BME280;10467;42.338;23.552;2022-08-20T03:22:00;90672.97;;;17.15;100.00
20616;BME280;10467;42.338;23.552;2022-08-20T03:24:25;90667.03;;;17.06;100.00
20616;BME280;10467;42.338;23.552;2022-08-20T03:26:50;90666.03;;;17.14;100.00
20616;BME280;10467;42.338;23.552;2022-08-20T03:29:16;90678.75;;;17.17;100.00
20616;BME280;10467;42.338;23.552;2022-08-20T03:31:41;90681.03;;;17.15;100.00
20616;BME280;10467;42.338;23.552;2022-08-20T03:34:07;90681.31;;;16.91;100.00
20616;BME280;10467;42.338;23.552;2022-08-20T03:36:32;90677.81;;;16.71;100.00
20616;BME280;10467;42.338;23.552;2022-08-20T03:39:00;90681.63;;;16.70;100.00
20616;BME280;10467;42.338;23.552;2022-08-20T03:41:26;90681.22;;;16.68;100.00
20616;BME280;10467;42.338;23.552;2022-08-20T03:43:53;90683.28;;;16.59;100.00
20616;BME280;10467;42.338;23.552;2022-08-20T03:46:19;90683.91;;;16.52;100.00
20616;BME280;10467;42.338;23.552;2022-08-20T03:48:45;90687.72;;;16.51;100.00
20616;BME280;10467;42.338;23.552;2022-08-20T03:51:11;90686.91;;;16.66;100.00
20616;BME280;10467;42.338;23.552;2022-08-20T03:53:36;90680.72;;;16.82;100.00
20616;BME280;10467;42.338;23.552;2022-08-20T03:56:04;90685.03;;;16.86;100.00
20616;BME280;10467;42.338;23.552;2022-08-20T03:58:32;90679.00;;;16.89;100.00
20616;BME280;10467;42.338;23.552;2022-08-20T04:00:57;90681.94;;;16.84;100.00
20616;BME280;10467;42.338;23.552;2022-08-20T04:03:23;90683.06;;;16.83;100.00
20616;BME280;10467;42.338;23.552;2022-08-20T04:05:49;90690.09;;;16.72;100.00
20616;BME280;10467;42.338;23.552;2022-08-20T04:08:21;90695.84;;;16.70;100.00
20616;BME280;10467;42.338;23.552;2022-08-20T04:10:49;90682.50;;;16.74;100.00
20616;BME280;10467;42.338;23.552;2022-08-20T04:13:15;90688.44;;;16.83;100.00
20616;BME280;10467;42.338;23.552;2022-08-20T04:15:41;90681.56;;;16.86;100.00
20616;BME280;10467;42.338;23.552;2022-08-20T04:18:09;90690.72;;;17.00;100.00
20616;BME280;10467;42.338;23.552;2022-08-20T04:20:38;90681.25;;;17.06;100.00
20616;BME280;10467;42.338;23.552;2022-08-20T04:23:05;90676.84;;;17.18;100.00
20616;BME280;10467;42.338;23.552;2022-08-20T04:25:33;90678.50;;;17.22;100.00
20616;BME280;10467;42.338;23.552;2022-08-20T04:28:00;90681.31;;;17.29;100.00
20616;BME280;10467;42.338;23.552;2022-08-20T04:30:26;90679.66;;;17.44;100.00
20616;BME280;10467;42.338;23.552;2022-08-20T04:32:52;90678.25;;;17.70;100.00
20616;BME280;10467;42.338;23.552;2022-08-20T04:35:18;90678.25;;;17.92;100.00
20616;BME280;10467;42.338;23.552;2022-08-20T04:37:44;90682.00;;;18.11;100.00
20616;BME280;10467;42.338;23.552;2022-08-20T04:40:15;90679.59;;;18.29;100.00
20616;BME280;10467;42.338;23.552;2022-08-20T04:43:00;90676.38;;;18.46;100.00
20616;BME280;10467;42.338;23.552;2022-08-20T04:45:25;90673.50;;;18.58;100.00
20616;BME280;10467;42.338;23.552;2022-08-20T04:47:51;90675.69;;;18.49;100.00
20616;BME280;10467;42.338;23.552;2022-08-20T04:50:18;90687.22;;;18.72;100.00
20616;BME280;10467;42.338;23.552;2022-08-20T04:52:45;90675.63;;;19.62;100.00
20616;BME280;10467;42.338;23.552;2022-08-20T04:55:12;90677.25;;;20.07;98.81
20616;BME280;10467;42.338;23.552;2022-08-20T04:57:37;90671.72;;;20.37;94.82
20616;BME280;10467;42.338;23.552;2022-08-20T05:00:06;90673.53;;;20.74;90.18
20616;BME280;10467;42.338;23.552;2022-08-20T05:02:33;90675.84;;;21.41;83.53
20616;BME280;10467;42.338;23.552;2022-08-20T05:05:02;90677.63;;;22.70;73.22
20616;BME280;10467;42.338;23.552;2022-08-20T05:07:28;90682.31;;;22.84;70.47
20616;BME280;10467;42.338;23.552;2022-08-20T05:09:53;90685.88;;;23.93;65.37
20616;BME280;10467;42.338;23.552;2022-08-20T05:12:18;90684.19;;;24.17;63.78
20616;BME280;10467;42.338;23.552;2022-08-20T05:14:44;90680.59;;;24.86;61.78
20616;BME280;10467;42.338;23.552;2022-08-20T05:17:11;90685.25;;;25.68;59.19
20616;BME280;10467;42.338;23.552;2022-08-20T05:19:39;90682.13;;;25.66;59.06
20616;BME280;10467;42.338;23.552;2022-08-20T05:22:06;90685.00;;;26.20;57.08
20616;BME280;10467;42.338;23.552;2022-08-20T05:24:32;90684.09;;;26.57;55.88
20616;BME280;10467;42.338;23.552;2022-08-20T05:26:59;90681.72;;;27.09;54.42
20616;BME280;10467;42.338;23.552;2022-08-20T05:29:25;90669.06;;;28.42;51.59
20616;BME280;10467;42.338;23.552;2022-08-20T05:31:50;90671.28;;;29.44;49.07
20616;BME280;10467;42.338;23.552;2022-08-20T05:34:16;90679.03;;;29.17;49.35
20616;BME280;10467;42.338;23.552;2022-08-20T05:36:47;90674.50;;;29.72;47.41
20616;BME280;10467;42.338;23.552;2022-08-20T05:39:14;90666.31;;;30.14;47.09
20616;BME280;10467;42.338;23.552;2022-08-20T05:41:40;90665.28;;;30.75;46.25
20616;BME280;10467;42.338;23.552;2022-08-20T05:44:07;90670.84;;;31.35;43.60
20616;BME280;10467;42.338;23.552;2022-08-20T05:46:38;90675.97;;;31.58;44.57
20616;BME280;10467;42.338;23.552;2022-08-20T05:49:06;90675.34;;;32.32;43.04
20616;BME280;10467;42.338;23.552;2022-08-20T05:51:31;90670.88;;;33.28;41.29
20616;BME280;10467;42.338;23.552;2022-08-20T05:53:57;90672.63;;;33.34;40.01
20616;BME280;10467;42.338;23.552;2022-08-20T05:56:22;90673.47;;;33.99;39.84
20616;BME280;10467;42.338;23.552;2022-08-20T05:58:48;90669.75;;;34.20;38.62
20616;BME280;10467;42.338;23.552;2022-08-20T06:01:13;90663.81;;;33.94;39.88
20616;BME280;10467;42.338;23.552;2022-08-20T06:03:38;90662.13;;;33.97;40.65
20616;BME280;10467;42.338;23.552;2022-08-20T06:06:22;90651.81;;;33.52;39.88
20616;BME280;10467;42.338;23.552;2022-08-20T06:08:48;90661.09;;;32.56;41.25
20616;BME280;10467;42.338;23.552;2022-08-20T06:11:13;90656.06;;;32.85;41.24
20616;BME280;10467;42.338;23.552;2022-08-20T06:13:38;90657.03;;;34.23;39.27
20616;BME280;10467;42.338;23.552;2022-08-20T06:16:04;90658.81;;;35.71;36.42
20616;BME280;10467;42.338;23.552;2022-08-20T06:18:29;90664.66;;;36.12;35.58
20616;BME280;10467;42.338;23.552;2022-08-20T06:20:55;90647.94;;;35.34;36.75
20616;BME280;10467;42.338;23.552;2022-08-20T06:23:21;90659.94;;;35.88;36.59
20616;BME280;10467;42.338;23.552;2022-08-20T06:25:48;90656.03;;;36.93;36.00
20616;BME280;10467;42.338;23.552;2022-08-20T06:28:17;90660.91;;;37.12;35.52
20616;BME280;10467;42.338;23.552;2022-08-20T06:30:43;90667.75;;;37.67;33.42
20616;BME280;10467;42.338;23.552;2022-08-20T06:33:08;90659.88;;;38.00;33.70
20616;BME280;10467;42.338;23.552;2022-08-20T06:35:34;90665.84;;;38.60;32.66
20616;BME280;10467;42.338;23.552;2022-08-20T06:38:02;90665.66;;;37.97;34.15
20616;BME280;10467;42.338;23.552;2022-08-20T06:40:29;90659.00;;;37.89;34.27
20616;BME280;10467;42.338;23.552;2022-08-20T06:42:55;90659.75;;;36.75;35.89
20616;BME280;10467;42.338;23.552;2022-08-20T06:45:27;90664.50;;;37.68;35.08
20616;BME280;10467;42.338;23.552;2022-08-20T06:47:55;90669.75;;;39.57;34.12
20616;BME280;10467;42.338;23.552;2022-08-20T06:50:30;90663.81;;;39.81;32.37
20616;BME280;10467;42.338;23.552;2022-08-20T06:52:56;90660.63;;;40.76;31.40
20616;BME280;10467;42.338;23.552;2022-08-20T06:55:22;90672.09;;;39.64;33.43
20616;BME280;10467;42.338;23.552;2022-08-20T06:57:56;90673.22;;;39.89;33.74
20616;BME280;10467;42.338;23.552;2022-08-20T07:00:23;90661.00;;;38.09;34.81
20616;BME280;10467;42.338;23.552;2022-08-20T07:02:48;90658.53;;;37.05;36.63
20616;BME280;10467;42.338;23.552;2022-08-20T07:05:14;90659.56;;;35.95;39.16
20616;BME280;10467;42.338;23.552;2022-08-20T07:07:44;90646.97;;;36.33;38.55
20616;BME280;10467;42.338;23.552;2022-08-20T07:10:12;90651.97;;;35.57;38.92
20616;BME280;10467;42.338;23.552;2022-08-20T07:12:38;90642.19;;;33.93;40.93
20616;BME280;10467;42.338;23.552;2022-08-20T07:15:06;90650.44;;;34.20;40.66
20616;BME280;10467;42.338;23.552;2022-08-20T07:17:32;90655.59;;;36.26;39.28
20616;BME280;10467;42.338;23.552;2022-08-20T07:20:03;90657.44;;;37.32;36.81
20616;BME280;10467;42.338;23.552;2022-08-20T07:22:29;90652.91;;;36.55;38.50
20616;BME280;10467;42.338;23.552;2022-08-20T07:24:55;90649.19;;;37.38;37.25
20616;BME280;10467;42.338;23.552;2022-08-20T07:27:21;90647.88;;;37.89;37.21
20616;BME280;10467;42.338;23.552;2022-08-20T07:29:48;90645.16;;;38.87;35.82
20616;BME280;10467;42.338;23.552;2022-08-20T07:32:33;90652.19;;;39.88;34.01
20616;BME280;10467;42.338;23.552;2022-08-20T07:35:01;90655.13;;;38.99;34.59
20616;BME280;10467;42.338;23.552;2022-08-20T07:37:27;90654.13;;;37.13;36.66
20616;BME280;10467;42.338;23.552;2022-08-20T07:39:53;90644.97;;;36.34;38.46
20616;BME280;10467;42.338;23.552;2022-08-20T07:42:18;90652.09;;;35.30;38.77
20616;BME280;10467;42.338;23.552;2022-08-20T07:44:43;90643.19;;;34.50;40.98
20616;BME280;10467;42.338;23.552;2022-08-20T07:47:09;90641.06;;;34.36;40.22
20616;BME280;10467;42.338;23.552;2022-08-20T07:49:40;90642.75;;;34.85;40.42
20616;BME280;10467;42.338;23.552;2022-08-20T07:52:06;90639.97;;;35.36;40.83
20616;BME280;10467;42.338;23.552;2022-08-20T07:54:31;90645.84;;;36.01;39.69
20616;BME280;10467;42.338;23.552;2022-08-20T07:57:00;90641.94;;;37.40;37.70
20616;BME280;10467;42.338;23.552;2022-08-20T07:59:30;90654.88;;;37.29;36.60
20616;BME280;10467;42.338;23.552;2022-08-20T08:01:55;90641.69;;;37.79;35.95
20616;BME280;10467;42.338;23.552;2022-08-20T08:04:21;90642.28;;;37.48;36.69
20616;BME280;10467;42.338;23.552;2022-08-20T08:06:51;90641.03;;;38.51;35.05
20616;BME280;10467;42.338;23.552;2022-08-20T08:09:17;90633.56;;;39.26;34.27
20616;BME280;10467;42.338;23.552;2022-08-20T08:11:45;90635.34;;;39.23;33.67
20616;BME280;10467;42.338;23.552;2022-08-20T08:14:19;90636.84;;;40.04;33.07
20616;BME280;10467;42.338;23.552;2022-08-20T08:16:47;90636.38;;;39.63;33.37
20616;BME280;10467;42.338;23.552;2022-08-20T08:19:14;90644.28;;;39.38;33.26
20616;BME280;10467;42.338;23.552;2022-08-20T08:21:40;90642.47;;;39.30;33.62
20616;BME280;10467;42.338;23.552;2022-08-20T08:24:09;90642.09;;;38.59;33.66
20616;BME280;10467;42.338;23.552;2022-08-20T08:26:35;90649.06;;;38.23;35.41
20616;BME280;10467;42.338;23.552;2022-08-20T08:29:01;90638.44;;;39.73;33.86
20616;BME280;10467;42.338;23.552;2022-08-20T08:31:27;90639.44;;;39.65;32.24
20616;BME280;10467;42.338;23.552;2022-08-20T08:33:53;90634.50;;;37.32;37.05
20616;BME280;10467;42.338;23.552;2022-08-20T08:36:18;90635.13;;;37.41;36.49
20616;BME280;10467;42.338;23.552;2022-08-20T08:38:44;90636.41;;;38.68;35.20
20616;BME280;10467;42.338;23.552;2022-08-20T08:41:18;90636.09;;;38.92;34.33
20616;BME280;10467;42.338;23.552;2022-08-20T08:43:47;90637.94;;;39.75;34.29
20616;BME280;10467;42.338;23.552;2022-08-20T08:46:17;90631.78;;;40.08;33.87
20616;BME280;10467;42.338;23.552;2022-08-20T08:48:47;90629.97;;;41.54;31.36
20616;BME280;10467;42.338;23.552;2022-08-20T08:51:24;90620.38;;;42.24;30.39
20616;BME280;10467;42.338;23.552;2022-08-20T08:53:53;90623.91;;;41.05;32.99
20616;BME280;10467;42.338;23.552;2022-08-20T08:56:22;90618.91;;;42.12;31.00
20616;BME280;10467;42.338;23.552;2022-08-20T08:58:48;90617.72;;;39.06;33.46
20616;BME280;10467;42.338;23.552;2022-08-20T09:01:16;90607.63;;;39.88;31.90
20616;BME280;10467;42.338;23.552;2022-08-20T09:03:45;90624.47;;;38.93;33.27
20616;BME280;10467;42.338;23.552;2022-08-20T09:06:14;90605.84;;;36.76;35.73
20616;BME280;10467;42.338;23.552;2022-08-20T09:08:47;90619.59;;;36.11;37.52
20616;BME280;10467;42.338;23.552;2022-08-20T09:11:15;90618.03;;;36.64;36.81
20616;BME280;10467;42.338;23.552;2022-08-20T09:13:42;90606.56;;;38.43;34.88
20616;BME280;10467;42.338;23.552;2022-08-20T09:16:09;90613.09;;;40.25;34.01
20616;BME280;10467;42.338;23.552;2022-08-20T09:18:34;90603.53;;;39.35;32.67
20616;BME280;10467;42.338;23.552;2022-08-20T09:21:00;90602.69;;;39.18;34.53
20616;BME280;10467;42.338;23.552;2022-08-20T09:23:25;90616.38;;;36.72;35.68
20616;BME280;10467;42.338;23.552;2022-08-20T09:25:50;90603.88;;;36.32;36.70
20616;BME280;10467;42.338;23.552;2022-08-20T09:28:16;90603.19;;;36.67;36.38
20616;BME280;10467;42.338;23.552;2022-08-20T09:30:42;90601.91;;;37.12;37.64
20616;BME280;10467;42.338;23.552;2022-08-20T09:33:07;90594.91;;;38.64;33.94
20616;BME280;10467;42.338;23.552;2022-08-20T09:35:33;90600.13;;;38.57;33.08
20616;BME280;10467;42.338;23.552;2022-08-20T09:37:59;90604.81;;;39.34;32.72
20616;BME280;10467;42.338;23.552;2022-08-20T09:40:25;90610.41;;;40.76;31.30
20616;BME280;10467;42.338;23.552;2022-08-20T09:42:50;90613.53;;;40.07;31.16
20616;BME280;10467;42.338;23.552;2022-08-20T09:45:16;90607.53;;;39.66;31.67
20616;BME280;10467;42.338;23.552;2022-08-20T09:47:42;90604.63;;;38.80;34.42
20616;BME280;10467;42.338;23.552;2022-08-20T09:50:08;90610.50;;;39.14;34.69
20616;BME280;10467;42.338;23.552;2022-08-20T09:52:35;90599.75;;;39.01;34.51
20616;BME280;10467;42.338;23.552;2022-08-20T09:57:36;90592.97;;;38.76;32.30
20616;BME280;10467;42.338;23.552;2022-08-20T10:00:05;90593.19;;;38.67;33.50
20616;BME280;10467;42.338;23.552;2022-08-20T10:02:32;90595.06;;;40.15;32.53
20616;BME280;10467;42.338;23.552;2022-08-20T10:04:58;90600.75;;;40.43;31.63
20616;BME280;10467;42.338;23.552;2022-08-20T10:07:23;90597.25;;;40.76;30.72
20616;BME280;10467;42.338;23.552;2022-08-20T10:09:49;90599.50;;;39.90;31.71
20616;BME280;10467;42.338;23.552;2022-08-20T10:12:14;90584.75;;;39.24;32.46
20616;BME280;10467;42.338;23.552;2022-08-20T10:14:39;90594.50;;;37.79;33.93
20616;BME280;10467;42.338;23.552;2022-08-20T10:17:05;90589.91;;;38.69;33.87
20616;BME280;10467;42.338;23.552;2022-08-20T10:19:31;90594.03;;;40.01;32.00
20616;BME280;10467;42.338;23.552;2022-08-20T10:21:57;90592.78;;;38.54;33.16
20616;BME280;10467;42.338;23.552;2022-08-20T10:24:23;90596.63;;;37.14;35.16
20616;BME280;10467;42.338;23.552;2022-08-20T10:26:49;90589.13;;;38.68;33.76
20616;BME280;10467;42.338;23.552;2022-08-20T10:29:15;90591.16;;;36.40;35.91
20616;BME280;10467;42.338;23.552;2022-08-20T10:31:41;90586.91;;;35.14;38.04
20616;BME280;10467;42.338;23.552;2022-08-20T10:34:07;90580.06;;;32.75;42.64
20616;BME280;10467;42.338;23.552;2022-08-20T10:36:33;90587.31;;;31.54;45.70
20616;BME280;10467;42.338;23.552;2022-08-20T10:38:58;90580.06;;;30.65;47.35
20616;BME280;10467;42.338;23.552;2022-08-20T10:41:24;90581.66;;;29.87;48.43
20616;BME280;10467;42.338;23.552;2022-08-20T10:43:49;90573.03;;;29.59;48.83
20616;BME280;10467;42.338;23.552;2022-08-20T10:46:15;90575.16;;;29.93;48.49
20616;BME280;10467;42.338;23.552;2022-08-20T10:48:40;90576.44;;;28.56;50.64
20616;BME280;10467;42.338;23.552;2022-08-20T10:51:06;90577.94;;;28.25;51.97
20616;BME280;10467;42.338;23.552;2022-08-20T10:53:31;90584.94;;;28.10;54.39
20616;BME280;10467;42.338;23.552;2022-08-20T10:55:57;90583.47;;;28.05;53.33
20616;BME280;10467;42.338;23.552;2022-08-20T10:58:23;90576.44;;;27.48;54.35
20616;BME280;10467;42.338;23.552;2022-08-20T11:00:49;90579.47;;;27.34;55.57
20616;BME280;10467;42.338;23.552;2022-08-20T11:03:15;90572.53;;;27.49;55.96
20616;BME280;10467;42.338;23.552;2022-08-20T11:05:40;90577.50;;;27.74;55.46
20616;BME280;10467;42.338;23.552;2022-08-20T11:08:06;90585.13;;;27.63;55.76
20616;BME280;10467;42.338;23.552;2022-08-20T11:10:33;90605.34;;;27.45;56.54
20616;BME280;10467;42.338;23.552;2022-08-20T11:13:01;90602.47;;;27.13;57.09
20616;BME280;10467;42.338;23.552;2022-08-20T11:15:26;90593.19;;;26.87;58.70
20616;BME280;10467;42.338;23.552;2022-08-20T11:17:52;90589.38;;;26.81;59.32
20616;BME280;10467;42.338;23.552;2022-08-20T11:20:20;90582.72;;;27.05;59.07
20616;BME280;10467;42.338;23.552;2022-08-20T11:22:46;90574.53;;;27.25;58.67
20616;BME280;10467;42.338;23.552;2022-08-20T11:25:11;90563.97;;;27.27;58.84
20616;BME280;10467;42.338;23.552;2022-08-20T11:27:41;90573.28;;;27.10;58.75
20616;BME280;10467;42.338;23.552;2022-08-20T11:30:11;90554.81;;;26.94;59.82
20616;BME280;10467;42.338;23.552;2022-08-20T11:32:37;90558.44;;;26.68;60.49
20616;BME280;10467;42.338;23.552;2022-08-20T11:35:03;90555.06;;;26.33;62.78
20616;BME280;10467;42.338;23.552;2022-08-20T11:37:29;90556.03;;;26.23;63.74
20616;BME280;10467;42.338;23.552;2022-08-20T11:39:54;90555.47;;;26.08;65.31
20616;BME280;10467;42.338;23.552;2022-08-20T11:42:19;90556.88;;;25.93;65.95
20616;BME280;10467;42.338;23.552;2022-08-20T11:44:45;90556.59;;;25.84;66.83
20616;BME280;10467;42.338;23.552;2022-08-20T11:47:20;90572.16;;;25.83;70.99
20616;BME280;10467;42.338;23.552;2022-08-20T11:49:46;90578.34;;;25.26;87.58
20616;BME280;10467;42.338;23.552;2022-08-20T11:52:12;90573.13;;;24.67;99.68
20616;BME280;10467;42.338;23.552;2022-08-20T11:54:37;90583.22;;;24.18;100.00
20616;BME280;10467;42.338;23.552;2022-08-20T11:57:05;90591.44;;;23.42;100.00
20616;BME280;10467;42.338;23.552;2022-08-20T11:59:33;90602.84;;;22.80;100.00
20616;BME280;10467;42.338;23.552;2022-08-20T12:01:59;90605.63;;;22.16;100.00
20616;BME280;10467;42.338;23.552;2022-08-20T12:04:25;90603.22;;;21.61;100.00
20616;BME280;10467;42.338;23.552;2022-08-20T12:06:50;90599.69;;;21.32;100.00
20616;BME280;10467;42.338;23.552;2022-08-20T12:09:16;90594.56;;;21.19;100.00
20616;BME280;10467;42.338;23.552;2022-08-20T12:11:42;90579.84;;;21.06;100.00
20616;BME280;10467;42.338;23.552;2022-08-20T12:14:08;90574.38;;;20.92;100.00
20616;BME280;10467;42.338;23.552;2022-08-20T12:16:34;90565.78;;;20.72;100.00
20616;BME280;10467;42.338;23.552;2022-08-20T12:18:59;90546.97;;;21.01;100.00
20616;BME280;10467;42.338;23.552;2022-08-20T12:21:24;90535.75;;;20.95;100.00
20616;BME280;10467;42.338;23.552;2022-08-20T12:23:50;90561.66;;;21.03;100.00
20616;BME280;10467;42.338;23.552;2022-08-20T12:26:15;90584.78;;;20.83;100.00
20616;BME280;10467;42.338;23.552;2022-08-20T12:28:41;90603.78;;;20.39;100.00
20616;BME280;10467;42.338;23.552;2022-08-20T12:31:06;90582.94;;;19.88;100.00
20616;BME280;10467;42.338;23.552;2022-08-20T12:33:32;90571.09;;;19.55;100.00
20616;BME280;10467;42.338;23.552;2022-08-20T12:35:57;90564.84;;;19.48;100.00
20616;BME280;10467;42.338;23.552;2022-08-20T12:38:23;90572.53;;;19.45;100.00
20616;BME280;10467;42.338;23.552;2022-08-20T12:40:48;90585.63;;;19.43;100.00
20616;BME280;10467;42.338;23.552;2022-08-20T12:43:13;90588.78;;;19.53;100.00
20616;BME280;10467;42.338;23.552;2022-08-20T12:45:39;90594.28;;;19.60;100.00
20616;BME280;10467;42.338;23.552;2022-08-20T12:48:07;90593.03;;;19.54;100.00
20616;BME280;10467;42.338;23.552;2022-08-20T12:50:34;90600.00;;;19.55;100.00
20616;BME280;10467;42.338;23.552;2022-08-20T12:53:00;90569.63;;;19.61;100.00
20616;BME280;10467;42.338;23.552;2022-08-20T12:55:26;90550.22;;;19.52;100.00